sensor_id;sensor_type;location;lat;lon;timestamp;temperature;humidity
4324;DHT22;2175;51.018;6.994;2023-05-16T00:00:18;12.80;99.90
4324;DHT22;2175;51.018;6.994;2023-05-16T00:02:44;12.70;99.90
4324;DHT22;2175;51.018;6.994;2023-05-16T00:05:10;12.70;99.90
4324;DHT22;2175;51.018;6.994;2023-05-16T00:07:41;12.70;99.90
4324;DHT22;2175;51.018;6.994;2023-05-16T00:10:07;12.70;99.90
4324;DHT22;2175;51.018;6.994;2023-05-16T00:12:32;12.70;99.90
4324;DHT22;2175;51.018;6.994;2023-05-16T00:15:01;12.70;99.90
4324;DHT22;2175;51.018;6.994;2023-05-16T00:17:26;12.60;99.90
4324;DHT22;2175;51.018;6.994;2023-05-16T00:19:54;12.60;99.90
4324;DHT22;2175;51.018;6.994;2023-05-16T00:22:23;12.50;99.90
4324;DHT22;2175;51.018;6.994;2023-05-16T00:24:49;12.60;99.90
4324;DHT22;2175;51.018;6.994;2023-05-16T00:27:15;12.60;99.90
4324;DHT22;2175;51.018;6.994;2023-05-16T00:29:41;12.50;99.90
4324;DHT22;2175;51.018;6.994;2023-05-16T00:32:06;12.50;99.90
4324;DHT22;2175;51.018;6.994;2023-05-16T00:34:33;12.50;99.90
4324;DHT22;2175;51.018;6.994;2023-05-16T00:36:59;12.50;99.90
4324;DHT22;2175;51.018;6.994;2023-05-16T00:39:24;12.40;99.90
4324;DHT22;2175;51.018;6.994;2023-05-16T00:41:50;12.40;99.90
4324;DHT22;2175;51.018;6.994;2023-05-16T00:44:16;12.40;99.90
4324;DHT22;2175;51.018;6.994;2023-05-16T00:46:42;12.50;99.90
4324;DHT22;2175;51.018;6.994;2023-05-16T00:49:08;12.40;99.90
4324;DHT22;2175;51.018;6.994;2023-05-16T00:51:34;12.40;99.90
4324;DHT22;2175;51.018;6.994;2023-05-16T00:54:01;12.30;99.90
4324;DHT22;2175;51.018;6.994;2023-05-16T00:56:27;12.30;99.90
4324;DHT22;2175;51.018;6.994;2023-05-16T00:58:53;12.30;99.90
4324;DHT22;2175;51.018;6.994;2023-05-16T01:01:19;12.30;99.90
4324;DHT22;2175;51.018;6.994;2023-05-16T01:03:48;12.30;99.90
4324;DHT22;2175;51.018;6.994;2023-05-16T01:06:14;12.30;99.90
4324;DHT22;2175;51.018;6.994;2023-05-16T01:08:39;12.30;99.90
4324;DHT22;2175;51.018;6.994;2023-05-16T01:13:59;12.20;99.90
4324;DHT22;2175;51.018;6.994;2023-05-16T01:16:33;12.20;99.90
4324;DHT22;2175;51.018;6.994;2023-05-16T01:21:54;12.00;99.90
4324;DHT22;2175;51.018;6.994;2023-05-16T01:25:20;12.00;99.90
4324;DHT22;2175;51.018;6.994;2023-05-16T01:27:22;11.90;99.90
4324;DHT22;2175;51.018;6.994;2023-05-16T01:29:55;11.90;99.90
4324;DHT22;2175;51.018;6.994;2023-05-16T01:32:20;11.90;99.90
4324;DHT22;2175;51.018;6.994;2023-05-16T01:34:48;11.90;99.90
4324;DHT22;2175;51.018;6.994;2023-05-16T01:37:23;11.90;99.90
4324;DHT22;2175;51.018;6.994;2023-05-16T01:43:01;11.80;99.90
4324;DHT22;2175;51.018;6.994;2023-05-16T01:45:31;11.80;99.90
4324;DHT22;2175;51.018;6.994;2023-05-16T01:48:21;11.80;99.90
4324;DHT22;2175;51.018;6.994;2023-05-16T01:50:51;11.80;99.90
4324;DHT22;2175;51.018;6.994;2023-05-16T01:53:22;11.70;99.90
4324;DHT22;2175;51.018;6.994;2023-05-16T01:55:56;11.70;99.90
4324;DHT22;2175;51.018;6.994;2023-05-16T01:58:26;11.60;99.90
4324;DHT22;2175;51.018;6.994;2023-05-16T02:00:53;11.60;99.90
4324;DHT22;2175;51.018;6.994;2023-05-16T02:03:19;11.60;99.90
4324;DHT22;2175;51.018;6.994;2023-05-16T02:05:45;11.70;99.90
4324;DHT22;2175;51.018;6.994;2023-05-16T02:08:10;11.60;99.90
4324;DHT22;2175;51.018;6.994;2023-05-16T02:10:36;11.50;99.90
4324;DHT22;2175;51.018;6.994;2023-05-16T02:13:01;11.40;99.90
4324;DHT22;2175;51.018;6.994;2023-05-16T02:15:27;11.40;99.90
4324;DHT22;2175;51.018;6.994;2023-05-16T02:17:53;11.30;99.90
4324;DHT22;2175;51.018;6.994;2023-05-16T02:20:19;11.30;99.90
4324;DHT22;2175;51.018;6.994;2023-05-16T02:22:44;11.20;99.90
4324;DHT22;2175;51.018;6.994;2023-05-16T02:25:13;11.20;99.90
4324;DHT22;2175;51.018;6.994;2023-05-16T02:27:39;11.30;99.90
4324;DHT22;2175;51.018;6.994;2023-05-16T02:30:06;11.30;99.90
4324;DHT22;2175;51.018;6.994;2023-05-16T02:32:32;11.10;99.90
4324;DHT22;2175;51.018;6.994;2023-05-16T02:34:58;11.10;99.90
4324;DHT22;2175;51.018;6.994;2023-05-16T02:37:23;11.10;99.90
4324;DHT22;2175;51.018;6.994;2023-05-16T02:39:49;11.00;99.90
4324;DHT22;2175;51.018;6.994;2023-05-16T02:42:15;10.90;99.90
4324;DHT22;2175;51.018;6.994;2023-05-16T02:44:41;10.80;99.90
4324;DHT22;2175;51.018;6.994;2023-05-16T02:47:06;10.80;99.90
4324;DHT22;2175;51.018;6.994;2023-05-16T02:49:32;10.70;99.90
4324;DHT22;2175;51.018;6.994;2023-05-16T02:51:57;10.70;99.90
4324;DHT22;2175;51.018;6.994;2023-05-16T02:54:23;10.70;99.90
4324;DHT22;2175;51.018;6.994;2023-05-16T02:56:49;10.60;99.90
4324;DHT22;2175;51.018;6.994;2023-05-16T02:59:14;10.60;99.90
4324;DHT22;2175;51.018;6.994;2023-05-16T03:01:40;10.70;99.90
4324;DHT22;2175;51.018;6.994;2023-05-16T03:04:05;10.70;99.90
4324;DHT22;2175;51.018;6.994;2023-05-16T03:06:31;10.70;99.90
4324;DHT22;2175;51.018;6.994;2023-05-16T03:08:57;10.70;99.90
4324;DHT22;2175;51.018;6.994;2023-05-16T03:11:23;10.70;99.90
4324;DHT22;2175;51.018;6.994;2023-05-16T03:13:49;10.70;99.90
4324;DHT22;2175;51.018;6.994;2023-05-16T03:16:15;10.60;99.90
4324;DHT22;2175;51.018;6.994;2023-05-16T03:18:41;10.60;99.90
4324;DHT22;2175;51.018;6.994;2023-05-16T03:21:07;10.60;99.90
4324;DHT22;2175;51.018;6.994;2023-05-16T03:23:33;10.60;99.90
4324;DHT22;2175;51.018;6.994;2023-05-16T03:25:59;10.60;99.90
4324;DHT22;2175;51.018;6.994;2023-05-16T03:28:26;10.70;99.90
4324;DHT22;2175;51.018;6.994;2023-05-16T03:30:51;10.60;99.90
4324;DHT22;2175;51.018;6.994;2023-05-16T03:33:17;10.60;99.90
4324;DHT22;2175;51.018;6.994;2023-05-16T03:35:43;10.60;99.90
4324;DHT22;2175;51.018;6.994;2023-05-16T03:38:13;10.70;99.90
4324;DHT22;2175;51.018;6.994;2023-05-16T03:40:39;10.60;99.90
4324;DHT22;2175;51.018;6.994;2023-05-16T03:43:05;10.60;99.90
4324;DHT22;2175;51.018;6.994;2023-05-16T03:45:31;10.50;99.90
4324;DHT22;2175;51.018;6.994;2023-05-16T03:47:57;10.50;99.90
4324;DHT22;2175;51.018;6.994;2023-05-16T03:50:22;10.50;99.90
4324;DHT22;2175;51.018;6.994;2023-05-16T03:52:48;10.50;99.90
4324;DHT22;2175;51.018;6.994;2023-05-16T03:55:14;10.50;99.90
4324;DHT22;2175;51.018;6.994;2023-05-16T03:57:40;10.50;99.90
4324;DHT22;2175;51.018;6.994;2023-05-16T04:00:07;10.50;99.90
4324;DHT22;2175;51.018;6.994;2023-05-16T04:02:33;10.40;99.90
4324;DHT22;2175;51.018;6.994;2023-05-16T04:04:58;10.40;99.90
4324;DHT22;2175;51.018;6.994;2023-05-16T04:07:24;10.40;99.90
4324;DHT22;2175;51.018;6.994;2023-05-16T04:09:50;10.40;99.90
4324;DHT22;2175;51.018;6.994;2023-05-16T04:12:16;10.40;99.90
4324;DHT22;2175;51.018;6.994;2023-05-16T04:14:42;10.40;99.90
4324;DHT22;2175;51.018;6.994;2023-05-16T04:17:07;10.40;99.90
4324;DHT22;2175;51.018;6.994;2023-05-16T04:19:33;10.30;99.90
4324;DHT22;2175;51.018;6.994;2023-05-16T04:21:59;10.30;99.90
4324;DHT22;2175;51.018;6.994;2023-05-16T04:24:24;10.30;99.90
4324;DHT22;2175;51.018;6.994;2023-05-16T04:26:53;10.30;99.90
4324;DHT22;2175;51.018;6.994;2023-05-16T04:29:19;10.40;99.90
4324;DHT22;2175;51.018;6.994;2023-05-16T04:31:46;10.40;99.90
4324;DHT22;2175;51.018;6.994;2023-05-16T04:34:11;10.30;99.90
4324;DHT22;2175;51.018;6.994;2023-05-16T04:36:37;10.20;99.90
4324;DHT22;2175;51.018;6.994;2023-05-16T04:39:03;10.20;99.90
4324;DHT22;2175;51.018;6.994;2023-05-16T04:41:29;10.20;99.90
4324;DHT22;2175;51.018;6.994;2023-05-16T04:43:55;10.20;99.90
4324;DHT22;2175;51.018;6.994;2023-05-16T04:46:20;10.20;99.90
4324;DHT22;2175;51.018;6.994;2023-05-16T04:48:46;10.10;99.90
4324;DHT22;2175;51.018;6.994;2023-05-16T04:51:12;10.10;99.90
4324;DHT22;2175;51.018;6.994;2023-05-16T04:53:37;10.10;99.90
4324;DHT22;2175;51.018;6.994;2023-05-16T04:56:03;10.10;99.90
4324;DHT22;2175;51.018;6.994;2023-05-16T04:58:30;10.10;99.90
4324;DHT22;2175;51.018;6.994;2023-05-16T05:00:56;10.10;99.90
4324;DHT22;2175;51.018;6.994;2023-05-16T05:03:22;10.10;99.90
4324;DHT22;2175;51.018;6.994;2023-05-16T05:05:48;10.20;99.90
4324;DHT22;2175;51.018;6.994;2023-05-16T05:08:14;10.10;99.90
4324;DHT22;2175;51.018;6.994;2023-05-16T05:10:39;10.00;99.90
4324;DHT22;2175;51.018;6.994;2023-05-16T05:13:05;10.00;99.90
4324;DHT22;2175;51.018;6.994;2023-05-16T05:15:31;10.00;99.90
4324;DHT22;2175;51.018;6.994;2023-05-16T05:17:57;10.00;99.90
4324;DHT22;2175;51.018;6.994;2023-05-16T05:20:22;9.90;99.90
4324;DHT22;2175;51.018;6.994;2023-05-16T05:22:49;9.90;99.90
4324;DHT22;2175;51.018;6.994;2023-05-16T05:25:14;10.00;99.90
4324;DHT22;2175;51.018;6.994;2023-05-16T05:27:40;10.00;99.90
4324;DHT22;2175;51.018;6.994;2023-05-16T05:30:06;10.00;99.90
4324;DHT22;2175;51.018;6.994;2023-05-16T05:32:32;10.00;99.90
4324;DHT22;2175;51.018;6.994;2023-05-16T05:34:58;10.00;99.90
4324;DHT22;2175;51.018;6.994;2023-05-16T05:37:24;9.90;99.90
4324;DHT22;2175;51.018;6.994;2023-05-16T05:39:49;9.90;99.90
4324;DHT22;2175;51.018;6.994;2023-05-16T05:42:15;9.80;99.90
4324;DHT22;2175;51.018;6.994;2023-05-16T05:44:41;9.80;99.90
4324;DHT22;2175;51.018;6.994;2023-05-16T05:47:06;9.80;99.90
4324;DHT22;2175;51.018;6.994;2023-05-16T05:49:32;9.90;99.90
4324;DHT22;2175;51.018;6.994;2023-05-16T05:51:58;9.90;99.90
4324;DHT22;2175;51.018;6.994;2023-05-16T05:54:24;9.90;99.90
4324;DHT22;2175;51.018;6.994;2023-05-16T05:56:50;10.00;99.90
4324;DHT22;2175;51.018;6.994;2023-05-16T05:59:15;10.00;99.90
4324;DHT22;2175;51.018;6.994;2023-05-16T06:01:41;10.10;99.90
4324;DHT22;2175;51.018;6.994;2023-05-16T06:04:09;10.20;99.90
4324;DHT22;2175;51.018;6.994;2023-05-16T06:06:35;10.20;99.90
4324;DHT22;2175;51.018;6.994;2023-05-16T06:09:01;10.20;99.90
4324;DHT22;2175;51.018;6.994;2023-05-16T06:11:27;10.30;99.90
4324;DHT22;2175;51.018;6.994;2023-05-16T06:13:53;10.30;99.90
4324;DHT22;2175;51.018;6.994;2023-05-16T06:16:18;10.30;99.90
4324;DHT22;2175;51.018;6.994;2023-05-16T06:18:44;10.20;99.90
4324;DHT22;2175;51.018;6.994;2023-05-16T06:21:10;10.20;99.90
4324;DHT22;2175;51.018;6.994;2023-05-16T06:23:36;10.20;99.90
4324;DHT22;2175;51.018;6.994;2023-05-16T06:26:02;10.30;99.90
4324;DHT22;2175;51.018;6.994;2023-05-16T06:28:28;10.20;99.90
4324;DHT22;2175;51.018;6.994;2023-05-16T06:30:54;10.30;99.90
4324;DHT22;2175;51.018;6.994;2023-05-16T06:33:19;10.30;99.90
4324;DHT22;2175;51.018;6.994;2023-05-16T06:35:45;10.40;99.90
4324;DHT22;2175;51.018;6.994;2023-05-16T06:38:16;10.50;99.90
4324;DHT22;2175;51.018;6.994;2023-05-16T06:40:42;10.50;99.90
4324;DHT22;2175;51.018;6.994;2023-05-16T06:43:08;10.50;99.90
4324;DHT22;2175;51.018;6.994;2023-05-16T06:45:33;10.50;99.90
4324;DHT22;2175;51.018;6.994;2023-05-16T06:47:59;10.50;99.90
4324;DHT22;2175;51.018;6.994;2023-05-16T06:50:25;10.50;99.90
4324;DHT22;2175;51.018;6.994;2023-05-16T06:52:50;10.40;99.90
4324;DHT22;2175;51.018;6.994;2023-05-16T06:55:16;10.50;99.90
4324;DHT22;2175;51.018;6.994;2023-05-16T06:57:41;10.60;99.90
4324;DHT22;2175;51.018;6.994;2023-05-16T07:00:07;10.70;99.90
4324;DHT22;2175;51.018;6.994;2023-05-16T07:02:33;10.70;99.90
4324;DHT22;2175;51.018;6.994;2023-05-16T07:04:59;10.60;99.90
4324;DHT22;2175;51.018;6.994;2023-05-16T07:07:25;10.90;99.90
4324;DHT22;2175;51.018;6.994;2023-05-16T07:09:51;11.30;99.90
4324;DHT22;2175;51.018;6.994;2023-05-16T07:12:16;11.60;99.90
4324;DHT22;2175;51.018;6.994;2023-05-16T07:14:42;12.00;99.90
4324;DHT22;2175;51.018;6.994;2023-05-16T07:17:08;12.10;75.50
4324;DHT22;2175;51.018;6.994;2023-05-16T07:19:34;12.30;99.90
4324;DHT22;2175;51.018;6.994;2023-05-16T07:22:00;12.50;71.40
4324;DHT22;2175;51.018;6.994;2023-05-16T07:24:26;12.50;73.90
4324;DHT22;2175;51.018;6.994;2023-05-16T07:26:51;12.20;99.90
4324;DHT22;2175;51.018;6.994;2023-05-16T07:29:17;12.50;75.50
4324;DHT22;2175;51.018;6.994;2023-05-16T07:31:43;12.70;99.90
4324;DHT22;2175;51.018;6.994;2023-05-16T07:34:09;12.40;99.90
4324;DHT22;2175;51.018;6.994;2023-05-16T07:36:35;12.10;99.90
4324;DHT22;2175;51.018;6.994;2023-05-16T07:39:01;11.90;99.90
4324;DHT22;2175;51.018;6.994;2023-05-16T07:41:28;11.70;99.90
4324;DHT22;2175;51.018;6.994;2023-05-16T07:43:53;11.50;99.90
4324;DHT22;2175;51.018;6.994;2023-05-16T07:46:19;11.50;99.90
4324;DHT22;2175;51.018;6.994;2023-05-16T07:48:45;11.40;99.90
4324;DHT22;2175;51.018;6.994;2023-05-16T07:51:10;11.90;99.90
4324;DHT22;2175;51.018;6.994;2023-05-16T07:53:36;12.40;99.90
4324;DHT22;2175;51.018;6.994;2023-05-16T07:56:02;12.70;99.90
4324;DHT22;2175;51.018;6.994;2023-05-16T07:58:31;12.80;99.90
4324;DHT22;2175;51.018;6.994;2023-05-16T08:00:57;13.10;99.90
4324;DHT22;2175;51.018;6.994;2023-05-16T08:03:23;13.30;99.90
4324;DHT22;2175;51.018;6.994;2023-05-16T08:05:48;13.60;99.90
4324;DHT22;2175;51.018;6.994;2023-05-16T08:08:14;13.60;99.90
4324;DHT22;2175;51.018;6.994;2023-05-16T08:10:40;13.70;99.90
4324;DHT22;2175;51.018;6.994;2023-05-16T08:13:05;13.90;99.90
4324;DHT22;2175;51.018;6.994;2023-05-16T08:15:31;13.60;99.90
4324;DHT22;2175;51.018;6.994;2023-05-16T08:17:57;13.30;99.90
4324;DHT22;2175;51.018;6.994;2023-05-16T08:20:24;13.70;99.90
4324;DHT22;2175;51.018;6.994;2023-05-16T08:22:50;13.90;99.90
4324;DHT22;2175;51.018;6.994;2023-05-16T08:25:16;14.30;99.90
4324;DHT22;2175;51.018;6.994;2023-05-16T08:27:47;14.20;99.90
4324;DHT22;2175;51.018;6.994;2023-05-16T08:30:14;14.30;99.90
4324;DHT22;2175;51.018;6.994;2023-05-16T08:32:40;14.50;99.90
4324;DHT22;2175;51.018;6.994;2023-05-16T08:35:06;14.80;99.90
4324;DHT22;2175;51.018;6.994;2023-05-16T08:37:32;14.90;99.90
4324;DHT22;2175;51.018;6.994;2023-05-16T08:39:59;15.20;99.90
4324;DHT22;2175;51.018;6.994;2023-05-16T08:42:25;15.40;99.90
4324;DHT22;2175;51.018;6.994;2023-05-16T08:44:52;15.50;99.90
4324;DHT22;2175;51.018;6.994;2023-05-16T08:47:18;15.70;99.90
4324;DHT22;2175;51.018;6.994;2023-05-16T08:49:50;16.10;99.90
4324;DHT22;2175;51.018;6.994;2023-05-16T08:52:18;16.10;99.90
4324;DHT22;2175;51.018;6.994;2023-05-16T08:54:45;16.30;99.90
4324;DHT22;2175;51.018;6.994;2023-05-16T08:57:13;16.50;99.90
4324;DHT22;2175;51.018;6.994;2023-05-16T08:59:39;16.90;99.90
4324;DHT22;2175;51.018;6.994;2023-05-16T09:02:06;16.80;99.90
4324;DHT22;2175;51.018;6.994;2023-05-16T09:04:32;16.90;99.90
4324;DHT22;2175;51.018;6.994;2023-05-16T09:06:58;16.60;99.90
4324;DHT22;2175;51.018;6.994;2023-05-16T09:09:24;16.10;99.90
4324;DHT22;2175;51.018;6.994;2023-05-16T09:11:49;16.00;99.90
4324;DHT22;2175;51.018;6.994;2023-05-16T09:14:15;16.00;99.90
4324;DHT22;2175;51.018;6.994;2023-05-16T09:16:41;15.90;99.90
4324;DHT22;2175;51.018;6.994;2023-05-16T09:19:06;15.50;99.90
4324;DHT22;2175;51.018;6.994;2023-05-16T09:21:36;15.10;99.90
4324;DHT22;2175;51.018;6.994;2023-05-16T09:24:06;14.90;99.90
4324;DHT22;2175;51.018;6.994;2023-05-16T09:26:35;14.60;99.90
4324;DHT22;2175;51.018;6.994;2023-05-16T09:29:08;14.30;99.90
4324;DHT22;2175;51.018;6.994;2023-05-16T09:31:34;14.30;99.90
4324;DHT22;2175;51.018;6.994;2023-05-16T09:34:09;14.30;99.90
4324;DHT22;2175;51.018;6.994;2023-05-16T09:36:38;14.60;99.90
4324;DHT22;2175;51.018;6.994;2023-05-16T09:39:06;14.80;99.90
4324;DHT22;2175;51.018;6.994;2023-05-16T09:41:33;14.80;99.90
4324;DHT22;2175;51.018;6.994;2023-05-16T09:44:05;14.80;99.90
4324;DHT22;2175;51.018;6.994;2023-05-16T09:46:33;14.90;99.90
4324;DHT22;2175;51.018;6.994;2023-05-16T09:48:59;15.30;99.90
4324;DHT22;2175;51.018;6.994;2023-05-16T09:51:25;15.70;99.90
4324;DHT22;2175;51.018;6.994;2023-05-16T09:53:51;16.00;99.90
4324;DHT22;2175;51.018;6.994;2023-05-16T09:56:17;16.50;99.90
4324;DHT22;2175;51.018;6.994;2023-05-16T09:58:43;16.60;99.90
4324;DHT22;2175;51.018;6.994;2023-05-16T10:01:10;16.90;99.90
4324;DHT22;2175;51.018;6.994;2023-05-16T10:03:38;17.20;99.90
4324;DHT22;2175;51.018;6.994;2023-05-16T10:06:05;17.30;99.90
4324;DHT22;2175;51.018;6.994;2023-05-16T10:08:32;17.50;99.90
4324;DHT22;2175;51.018;6.994;2023-05-16T10:11:03;17.50;99.90
4324;DHT22;2175;51.018;6.994;2023-05-16T10:13:30;17.60;99.90
4324;DHT22;2175;51.018;6.994;2023-05-16T10:15:58;17.30;99.90
4324;DHT22;2175;51.018;6.994;2023-05-16T10:18:28;17.40;99.90
4324;DHT22;2175;51.018;6.994;2023-05-16T10:20:54;17.60;99.90
4324;DHT22;2175;51.018;6.994;2023-05-16T10:23:24;17.40;99.90
4324;DHT22;2175;51.018;6.994;2023-05-16T10:25:51;17.40;99.90
4324;DHT22;2175;51.018;6.994;2023-05-16T10:28:17;17.50;99.90
4324;DHT22;2175;51.018;6.994;2023-05-16T10:30:46;17.60;99.90
4324;DHT22;2175;51.018;6.994;2023-05-16T10:33:17;17.70;99.90
4324;DHT22;2175;51.018;6.994;2023-05-16T10:35:44;17.40;99.90
4324;DHT22;2175;51.018;6.994;2023-05-16T10:38:11;17.20;99.90
4324;DHT22;2175;51.018;6.994;2023-05-16T10:40:38;17.30;99.90
4324;DHT22;2175;51.018;6.994;2023-05-16T10:43:05;17.50;99.90
4324;DHT22;2175;51.018;6.994;2023-05-16T10:45:31;17.10;99.90
4324;DHT22;2175;51.018;6.994;2023-05-16T10:48:03;16.90;99.90
4324;DHT22;2175;51.018;6.994;2023-05-16T10:50:42;16.90;99.90
4324;DHT22;2175;51.018;6.994;2023-05-16T10:53:30;16.90;99.90
4324;DHT22;2175;51.018;6.994;2023-05-16T11:01:26;17.30;99.90
4324;DHT22;2175;51.018;6.994;2023-05-16T11:06:24;16.50;99.90
4324;DHT22;2175;51.018;6.994;2023-05-16T11:11:59;15.80;99.90
4324;DHT22;2175;51.018;6.994;2023-05-16T11:19:59;15.80;99.90
4324;DHT22;2175;51.018;6.994;2023-05-16T11:22:27;16.10;99.90
4324;DHT22;2175;51.018;6.994;2023-05-16T11:25:01;16.40;99.90
4324;DHT22;2175;51.018;6.994;2023-05-16T11:27:31;16.50;99.90
4324;DHT22;2175;51.018;6.994;2023-05-16T11:30:18;16.30;99.90
4324;DHT22;2175;51.018;6.994;2023-05-16T11:32:45;16.20;99.90
4324;DHT22;2175;51.018;6.994;2023-05-16T11:35:13;15.90;99.90
4324;DHT22;2175;51.018;6.994;2023-05-16T11:37:39;15.60;99.90
4324;DHT22;2175;51.018;6.994;2023-05-16T11:40:06;15.40;99.90
4324;DHT22;2175;51.018;6.994;2023-05-16T11:42:35;15.30;99.90
4324;DHT22;2175;51.018;6.994;2023-05-16T11:47:38;15.20;99.90
4324;DHT22;2175;51.018;6.994;2023-05-16T11:50:06;15.20;99.90
4324;DHT22;2175;51.018;6.994;2023-05-16T11:52:34;15.40;99.90
4324;DHT22;2175;51.018;6.994;2023-05-16T11:55:00;15.70;99.90
4324;DHT22;2175;51.018;6.994;2023-05-16T11:57:26;16.00;99.90
4324;DHT22;2175;51.018;6.994;2023-05-16T11:59:52;16.00;99.90
4324;DHT22;2175;51.018;6.994;2023-05-16T12:02:19;15.90;99.90
4324;DHT22;2175;51.018;6.994;2023-05-16T12:04:45;15.70;99.90
4324;DHT22;2175;51.018;6.994;2023-05-16T12:07:13;15.50;99.90
4324;DHT22;2175;51.018;6.994;2023-05-16T12:09:39;15.50;99.90
4324;DHT22;2175;51.018;6.994;2023-05-16T12:12:05;15.60;99.90
4324;DHT22;2175;51.018;6.994;2023-05-16T12:14:32;15.60;99.90
4324;DHT22;2175;51.018;6.994;2023-05-16T12:16:58;15.70;99.90
4324;DHT22;2175;51.018;6.994;2023-05-16T12:19:23;15.60;99.90
4324;DHT22;2175;51.018;6.994;2023-05-16T12:21:53;15.60;99.90
4324;DHT22;2175;51.018;6.994;2023-05-16T12:24:19;15.60;99.90
4324;DHT22;2175;51.018;6.994;2023-05-16T12:26:45;15.80;99.90
4324;DHT22;2175;51.018;6.994;2023-05-16T12:29:11;16.10;99.90
4324;DHT22;2175;51.018;6.994;2023-05-16T12:31:39;16.20;99.90
4324;DHT22;2175;51.018;6.994;2023-05-16T12:34:17;16.20;99.90
4324;DHT22;2175;51.018;6.994;2023-05-16T12:36:43;15.90;99.90
4324;DHT22;2175;51.018;6.994;2023-05-16T12:39:11;15.70;99.90
4324;DHT22;2175;51.018;6.994;2023-05-16T12:41:40;15.40;99.90
4324;DHT22;2175;51.018;6.994;2023-05-16T12:44:14;15.40;99.90
4324;DHT22;2175;51.018;6.994;2023-05-16T12:46:43;15.30;99.90
4324;DHT22;2175;51.018;6.994;2023-05-16T12:49:09;15.20;99.90
4324;DHT22;2175;51.018;6.994;2023-05-16T12:51:34;15.10;99.90
4324;DHT22;2175;51.018;6.994;2023-05-16T12:54:07;15.10;99.90
4324;DHT22;2175;51.018;6.994;2023-05-16T12:56:33;15.20;99.90
4324;DHT22;2175;51.018;6.994;2023-05-16T12:58:59;15.30;99.90
4324;DHT22;2175;51.018;6.994;2023-05-16T13:01:25;15.50;99.90
4324;DHT22;2175;51.018;6.994;2023-05-16T13:03:50;15.80;99.90
4324;DHT22;2175;51.018;6.994;2023-05-16T13:06:16;15.90;99.90
4324;DHT22;2175;51.018;6.994;2023-05-16T13:08:41;15.90;99.90
4324;DHT22;2175;51.018;6.994;2023-05-16T13:11:07;16.00;99.90
4324;DHT22;2175;51.018;6.994;2023-05-16T13:13:32;16.00;99.90
4324;DHT22;2175;51.018;6.994;2023-05-16T13:15:59;15.90;99.90
4324;DHT22;2175;51.018;6.994;2023-05-16T13:18:25;15.60;99.90
4324;DHT22;2175;51.018;6.994;2023-05-16T13:20:51;15.60;99.90
4324;DHT22;2175;51.018;6.994;2023-05-16T13:23:18;15.40;99.90
4324;DHT22;2175;51.018;6.994;2023-05-16T13:25:44;15.40;99.90
4324;DHT22;2175;51.018;6.994;2023-05-16T13:28:13;15.40;99.90
4324;DHT22;2175;51.018;6.994;2023-05-16T13:30:38;15.50;99.90
4324;DHT22;2175;51.018;6.994;2023-05-16T13:33:06;15.50;99.90
4324;DHT22;2175;51.018;6.994;2023-05-16T13:35:32;15.60;99.90
4324;DHT22;2175;51.018;6.994;2023-05-16T13:37:57;15.50;99.90
4324;DHT22;2175;51.018;6.994;2023-05-16T13:40:23;15.50;99.90
4324;DHT22;2175;51.018;6.994;2023-05-16T13:42:48;15.40;99.90
4324;DHT22;2175;51.018;6.994;2023-05-16T13:45:14;15.40;99.90
4324;DHT22;2175;51.018;6.994;2023-05-16T13:47:40;15.60;99.90
4324;DHT22;2175;51.018;6.994;2023-05-16T13:50:06;15.60;99.90
4324;DHT22;2175;51.018;6.994;2023-05-16T13:52:37;15.70;99.90
4324;DHT22;2175;51.018;6.994;2023-05-16T13:55:03;15.80;99.90
4324;DHT22;2175;51.018;6.994;2023-05-16T13:57:29;16.00;99.90
4324;DHT22;2175;51.018;6.994;2023-05-16T13:59:56;15.90;99.90
4324;DHT22;2175;51.018;6.994;2023-05-16T14:02:21;15.80;99.90
4324;DHT22;2175;51.018;6.994;2023-05-16T14:04:47;15.70;99.90
4324;DHT22;2175;51.018;6.994;2023-05-16T14:07:13;15.80;99.90
4324;DHT22;2175;51.018;6.994;2023-05-16T14:09:38;15.90;99.90
4324;DHT22;2175;51.018;6.994;2023-05-16T14:12:05;16.10;99.90
4324;DHT22;2175;51.018;6.994;2023-05-16T14:14:32;16.30;99.90
4324;DHT22;2175;51.018;6.994;2023-05-16T14:16:58;16.50;99.90
4324;DHT22;2175;51.018;6.994;2023-05-16T14:19:23;16.60;99.90
4324;DHT22;2175;51.018;6.994;2023-05-16T14:21:49;16.60;99.90
4324;DHT22;2175;51.018;6.994;2023-05-16T14:24:15;16.50;99.90
4324;DHT22;2175;51.018;6.994;2023-05-16T14:26:40;16.50;99.90
4324;DHT22;2175;51.018;6.994;2023-05-16T14:29:06;16.50;99.90
4324;DHT22;2175;51.018;6.994;2023-05-16T14:31:32;16.50;99.90
4324;DHT22;2175;51.018;6.994;2023-05-16T14:33:57;16.40;99.90
4324;DHT22;2175;51.018;6.994;2023-05-16T14:36:23;16.20;99.90
4324;DHT22;2175;51.018;6.994;2023-05-16T14:38:49;16.10;99.90
4324;DHT22;2175;51.018;6.994;2023-05-16T14:41:15;16.10;99.90
4324;DHT22;2175;51.018;6.994;2023-05-16T14:43:41;16.20;99.90
4324;DHT22;2175;51.018;6.994;2023-05-16T14:46:07;16.20;99.90
4324;DHT22;2175;51.018;6.994;2023-05-16T14:48:32;16.20;99.90
4324;DHT22;2175;51.018;6.994;2023-05-16T14:50:58;16.10;99.90
4324;DHT22;2175;51.018;6.994;2023-05-16T14:53:24;16.00;99.90
4324;DHT22;2175;51.018;6.994;2023-05-16T14:55:50;16.00;99.90
4324;DHT22;2175;51.018;6.994;2023-05-16T14:58:16;15.90;99.90
4324;DHT22;2175;51.018;6.994;2023-05-16T15:00:41;15.90;99.90
4324;DHT22;2175;51.018;6.994;2023-05-16T15:03:07;15.90;99.90
4324;DHT22;2175;51.018;6.994;2023-05-16T15:05:33;15.80;99.90
4324;DHT22;2175;51.018;6.994;2023-05-16T15:07:58;15.80;99.90
4324;DHT22;2175;51.018;6.994;2023-05-16T15:10:24;16.10;99.90
4324;DHT22;2175;51.018;6.994;2023-05-16T15:12:50;16.20;99.90
4324;DHT22;2175;51.018;6.994;2023-05-16T15:15:16;16.20;99.90
4324;DHT22;2175;51.018;6.994;2023-05-16T15:17:41;16.30;99.90
4324;DHT22;2175;51.018;6.994;2023-05-16T15:20:09;16.20;99.90
4324;DHT22;2175;51.018;6.994;2023-05-16T15:22:35;16.20;99.90
4324;DHT22;2175;51.018;6.994;2023-05-16T15:25:01;16.20;99.90
4324;DHT22;2175;51.018;6.994;2023-05-16T15:27:28;16.10;99.90
4324;DHT22;2175;51.018;6.994;2023-05-16T15:29:54;16.10;99.90
4324;DHT22;2175;51.018;6.994;2023-05-16T15:32:20;16.00;99.90
4324;DHT22;2175;51.018;6.994;2023-05-16T15:37:15;15.90;99.90
4324;DHT22;2175;51.018;6.994;2023-05-16T15:39:41;15.80;99.90
4324;DHT22;2175;51.018;6.994;2023-05-16T15:42:06;15.70;99.90
4324;DHT22;2175;51.018;6.994;2023-05-16T15:44:32;15.70;99.90
4324;DHT22;2175;51.018;6.994;2023-05-16T15:46:59;15.70;99.90
4324;DHT22;2175;51.018;6.994;2023-05-16T15:49:25;15.70;99.90
4324;DHT22;2175;51.018;6.994;2023-05-16T15:51:51;15.70;99.90
4324;DHT22;2175;51.018;6.994;2023-05-16T15:54:17;15.70;99.90
4324;DHT22;2175;51.018;6.994;2023-05-16T15:56:42;15.80;99.90
4324;DHT22;2175;51.018;6.994;2023-05-16T15:59:08;15.70;99.90
4324;DHT22;2175;51.018;6.994;2023-05-16T16:01:33;15.70;99.90
4324;DHT22;2175;51.018;6.994;2023-05-16T16:03:59;15.60;99.90
4324;DHT22;2175;51.018;6.994;2023-05-16T16:06:26;15.60;99.90
4324;DHT22;2175;51.018;6.994;2023-05-16T16:08:53;15.40;99.90
4324;DHT22;2175;51.018;6.994;2023-05-16T16:11:22;15.40;99.90
4324;DHT22;2175;51.018;6.994;2023-05-16T16:13:49;15.40;99.90
4324;DHT22;2175;51.018;6.994;2023-05-16T16:16:23;15.40;99.90
4324;DHT22;2175;51.018;6.994;2023-05-16T16:18:51;15.40;99.90
4324;DHT22;2175;51.018;6.994;2023-05-16T16:21:18;15.40;99.90
4324;DHT22;2175;51.018;6.994;2023-05-16T16:23:46;15.40;99.90
4324;DHT22;2175;51.018;6.994;2023-05-16T16:26:12;15.30;99.90
4324;DHT22;2175;51.018;6.994;2023-05-16T16:28:38;15.30;99.90